Airfield :
LOGIN :

Register | Disclaimer

   EN    FR    IT 

 










Legend :    VFR   Marginal VFR   IFR   Intensive IFR   Very Intensive IFR
Visi :
Ceiling :
>= 8 km
>= 3000ft
5 to 8 km
1000 to 3000 ft
1500m to 5 km
500 to 1000 ft
800 to 1500m
200 to 500 ft
< 800m
< 200 ft
Symbols :   Thunderstorms  Fog  Heavy snow  Heavy precipitations  Wind > 20 kt
SIGMETs :     Misc.  Thunderstorms  Icing  Turbulence  Mountain Waves  Volcanic Ashes






- Airport Elevation : 538 ft
- IATA code : TNF


LFPN - Toussus Le Noble

CURRENT METAR :
  • 110230Z AUTO 21013KT 9999 OVC007 06/05 Q1012

EXPIRED METARs :
  • 110200Z AUTO 21013KT 7000 -DZ BKN007 OVC012 06/05 Q1013
  • 110130Z AUTO 21017KT 9999 -DZ BKN011 BKN021 BKN033 07/05 Q1013
  • 110100Z AUTO 21017KT 9999 SCT012 BKN023 BKN029 07/05 Q1013
  • 110030Z AUTO 20015KT 9999 SCT013 BKN022 OVC038 07/05 Q1013
  • 110000Z AUTO 20015KT 9999 BKN013 OVC029 07/04 Q1014

Expired Forecast.
ATIS : +33 1 39 56 54 70



MET'MAP, your aeronautical weather chart ! - Copyright ORBIFLY December 2007 - Disclaimer

ORBIFLY MET'MAP TEAM :

Programming & Development : Alexandra Zaïnal
Concept & original design : Baudouin d'Aumeries
Assistance for programming : Marc-Olivier Méhu
Technical & hardware support : Manuel Goepfert

Contact : metmap@orbifly.com




SOURCES & CREDITS :

   NOAA